PWSweather.com
Personal Weather Stations
Station Observations

ChardChardGB

Lat: 50.877408, Lon: -2.94964741

Elevation: 341

Station Type: WS3083

http://www.merriott-astro.co.uk/weather/index.htm

High Low Average
Temperature 60.1°F15.6°C 52.0°F11.1°C 54.5°F12.5°C
Dew Point 50.1°F10.1°C 45.3°F7.4°C 47.7°F8.7°C
Winds 12.1 mph 19.5 kmh 0.4 mph 0.6 kmh 7.0 mph SSW11.3 kmh SSW
Wind Gusts 19.7 mph31.7 kmh 2.2 mph3.5 kmh 8.0 mph12.9 kmh
Humidity 86% 63% 78%
Pressure 29.77 in1008.1 mb 29.54 in1000.3 mb -
Precipitation 0.00 in0.0 mm - -
Hour Temp Dew Point Humidity Winds Wind Gusts Pressure Precip Precip Rate Daily Precip Total
12:00 AM 53.4°F11.9°C 47.4°F8.6°C 80% 4.6 mph SSW7.4 kmh SSW 8.3 mph13.4 kmh 29.76 in1007.8 mb 0.00 in0.0 mm 0.00 in0.0 mm 0.00 in0.0 mm
12:10 AM 53.6°F12.0°C 47.6°F8.7°C 80% 5.1 mph WSW8.2 kmh WSW 8.3 mph13.4 kmh 29.76 in1007.8 mb 0.00 in0.0 mm 0.00 in0.0 mm 0.00 in0.0 mm
12:20 AM 53.6°F12.0°C 47.6°F8.7°C 80% 6.1 mph SSW9.8 kmh SSW 9.2 mph14.8 kmh 29.75 in1007.5 mb 0.00 in0.0 mm 0.00 in0.0 mm 0.00 in0.0 mm
12:30 AM 53.6°F12.0°C 47.6°F8.7°C 80% 6.1 mph WSW9.8 kmh WSW 9.8 mph15.8 kmh 29.75 in1007.5 mb 0.00 in0.0 mm 0.00 in0.0 mm 0.00 in0.0 mm
12:40 AM 53.6°F12.0°C 47.6°F8.7°C 80% 4.5 mph SSW7.2 kmh SSW 7.6 mph12.2 kmh 29.75 in1007.5 mb 0.00 in0.0 mm 0.00 in0.0 mm 0.00 in0.0 mm
12:50 AM 53.6°F12.0°C 47.6°F8.7°C 80% 5.0 mph WSW8.0 kmh WSW 13.6 mph21.9 kmh 29.76 in1007.8 mb 0.00 in0.0 mm 0.00 in0.0 mm 0.00 in0.0 mm
01:00 AM 53.6°F12.0°C 47.6°F8.7°C 80% 6.5 mph WSW10.5 kmh WSW 13.6 mph21.9 kmh 29.76 in1007.8 mb 0.00 in0.0 mm 0.00 in0.0 mm 0.00 in0.0 mm
01:10 AM 53.6°F12.0°C 47.6°F8.7°C 80% 6.0 mph WNW9.7 kmh WNW 9.2 mph14.8 kmh 29.76 in1007.8 mb 0.00 in0.0 mm 0.00 in0.0 mm 0.00 in0.0 mm
01:20 AM 53.6°F12.0°C 47.6°F8.7°C 80% 3.9 mph SW6.3 kmh SW 6.0 mph9.7 kmh 29.75 in1007.5 mb 0.00 in0.0 mm 0.00 in0.0 mm 0.00 in0.0 mm
01:30 AM 53.4°F11.9°C 47.1°F8.4°C 79% 5.1 mph W8.2 kmh W 6.0 mph9.7 kmh 29.75 in1007.5 mb 0.00 in0.0 mm 0.00 in0.0 mm 0.00 in0.0 mm
01:40 AM 53.4°F11.9°C 47.1°F8.4°C 79% 5.9 mph NW9.5 kmh NW 11.4 mph18.3 kmh 29.76 in1007.8 mb 0.00 in0.0 mm 0.00 in0.0 mm 0.00 in0.0 mm
01:50 AM 53.4°F11.9°C 46.7°F8.2°C 78% 5.1 mph WNW8.2 kmh WNW 9.2 mph14.8 kmh 29.76 in1007.8 mb 0.00 in0.0 mm 0.00 in0.0 mm 0.00 in0.0 mm
02:00 AM 53.2°F11.8°C 46.2°F7.9°C 77% 5.3 mph NW8.5 kmh NW 10.7 mph17.2 kmh 29.76 in1007.8 mb 0.00 in0.0 mm 0.00 in0.0 mm 0.00 in0.0 mm
02:10 AM 53.2°F11.8°C 45.9°F7.7°C 76% 6.0 mph NW9.7 kmh NW 9.8 mph15.8 kmh 29.76 in1007.8 mb 0.00 in0.0 mm 0.00 in0.0 mm 0.00 in0.0 mm
02:20 AM 53.1°F11.7°C 45.7°F7.6°C 76% 8.0 mph NW12.9 kmh NW 10.7 mph17.2 kmh 29.75 in1007.5 mb 0.00 in0.0 mm 0.00 in0.0 mm 0.00 in0.0 mm
02:30 AM 52.9°F11.6°C 45.9°F7.7°C 77% 4.8 mph NW7.7 kmh NW 8.3 mph13.4 kmh 29.76 in1007.8 mb 0.00 in0.0 mm 0.00 in0.0 mm 0.00 in0.0 mm
02:40 AM 52.9°F11.6°C 45.9°F7.7°C 77% 4.0 mph NW6.4 kmh NW 6.9 mph11.1 kmh 29.76 in1007.8 mb 0.00 in0.0 mm 0.00 in0.0 mm 0.00 in0.0 mm
02:50 AM 52.7°F11.5°C 46.0°F7.8°C 78% 3.3 mph NW5.3 kmh NW 6.9 mph11.1 kmh 29.76 in1007.8 mb 0.00 in0.0 mm 0.00 in0.0 mm 0.00 in0.0 mm
03:00 AM 52.5°F11.4°C 45.9°F7.7°C 78% 2.4 mph NW3.9 kmh NW 3.8 mph6.1 kmh 29.76 in1007.8 mb 0.00 in0.0 mm 0.00 in0.0 mm 0.00 in0.0 mm
03:10 AM 52.5°F11.4°C 45.9°F7.7°C 78% 1.6 mph S2.6 kmh S 3.8 mph6.1 kmh 29.75 in1007.5 mb 0.00 in0.0 mm 0.00 in0.0 mm 0.00 in0.0 mm
03:20 AM 52.5°F11.4°C 45.9°F7.7°C 78% 3.1 mph SW5.0 kmh SW 5.4 mph8.7 kmh 29.76 in1007.8 mb 0.00 in0.0 mm 0.00 in0.0 mm 0.00 in0.0 mm
03:30 AM 52.5°F11.4°C 45.9°F7.7°C 78% 2.4 mph W3.9 kmh W 3.1 mph5.0 kmh 29.76 in1007.8 mb 0.00 in0.0 mm 0.00 in0.0 mm 0.00 in0.0 mm
03:40 AM 52.3°F11.3°C 45.7°F7.6°C 78% 2.6 mph W4.2 kmh W 5.4 mph8.7 kmh 29.76 in1007.8 mb 0.00 in0.0 mm 0.00 in0.0 mm 0.00 in0.0 mm
03:50 AM 52.3°F11.3°C 45.7°F7.6°C 78% 4.6 mph NW7.4 kmh NW 6.0 mph9.7 kmh 29.76 in1007.8 mb 0.00 in0.0 mm 0.00 in0.0 mm 0.00 in0.0 mm
04:00 AM 52.3°F11.3°C 45.7°F7.6°C 78% 1.8 mph NNE2.9 kmh NNE 3.1 mph5.0 kmh 29.75 in1007.5 mb 0.00 in0.0 mm 0.00 in0.0 mm 0.00 in0.0 mm
04:10 AM 52.3°F11.3°C 45.7°F7.6°C 78% 1.5 mph WNW2.4 kmh WNW 2.2 mph3.5 kmh 29.75 in1007.5 mb 0.00 in0.0 mm 0.00 in0.0 mm 0.00 in0.0 mm
04:20 AM 52.2°F11.2°C 45.5°F7.5°C 78% 2.5 mph W4.0 kmh W 3.8 mph6.1 kmh 29.75 in1007.5 mb 0.00 in0.0 mm 0.00 in0.0 mm 0.00 in0.0 mm
04:30 AM 52.2°F11.2°C 45.5°F7.5°C 78% 1.5 mph SW2.4 kmh SW 3.1 mph5.0 kmh 29.74 in1007.1 mb 0.00 in0.0 mm 0.00 in0.0 mm 0.00 in0.0 mm
04:40 AM 52.2°F11.2°C 45.5°F7.5°C 78% 2.3 mph SE3.7 kmh SE 4.5 mph7.2 kmh 29.74 in1007.1 mb 0.00 in0.0 mm 0.00 in0.0 mm 0.00 in0.0 mm
04:50 AM 52.0°F11.1°C 45.3°F7.4°C 78% 0.4 mph S0.6 kmh S 2.2 mph3.5 kmh 29.75 in1007.5 mb 0.00 in0.0 mm 0.00 in0.0 mm 0.00 in0.0 mm
05:00 AM 52.0°F11.1°C 45.7°F7.6°C 79% 1.4 mph SSE2.3 kmh SSE 2.2 mph3.5 kmh 29.75 in1007.5 mb 0.00 in0.0 mm 0.00 in0.0 mm 0.00 in0.0 mm
05:10 AM 52.0°F11.1°C 46.0°F7.8°C 80% 1.7 mph S2.7 kmh S 3.1 mph5.0 kmh 29.76 in1007.8 mb 0.00 in0.0 mm 0.00 in0.0 mm 0.00 in0.0 mm
05:20 AM 52.2°F11.2°C 46.2°F7.9°C 80% 2.0 mph S3.2 kmh S 3.1 mph5.0 kmh 29.76 in1007.8 mb 0.00 in0.0 mm 0.00 in0.0 mm 0.00 in0.0 mm
05:30 AM 52.2°F11.2°C 46.2°F7.9°C 80% 2.7 mph S4.3 kmh S 4.5 mph7.2 kmh 29.75 in1007.5 mb 0.00 in0.0 mm 0.00 in0.0 mm 0.00 in0.0 mm
05:40 AM 52.3°F11.3°C 46.4°F8.0°C 80% 3.1 mph SSE5.0 kmh SSE 5.4 mph8.7 kmh 29.76 in1007.8 mb 0.00 in0.0 mm 0.00 in0.0 mm 0.00 in0.0 mm
05:50 AM 52.3°F11.3°C 46.7°F8.2°C 81% 2.7 mph S4.3 kmh S 3.8 mph6.1 kmh 29.75 in1007.5 mb 0.00 in0.0 mm 0.00 in0.0 mm 0.00 in0.0 mm
06:00 AM 52.5°F11.4°C 46.9°F8.3°C 81% 3.4 mph SW5.5 kmh SW 4.5 mph7.2 kmh 29.77 in1008.1 mb 0.00 in0.0 mm 0.00 in0.0 mm 0.00 in0.0 mm
06:10 AM 52.7°F11.5°C 47.0°F8.3°C 81% 1.7 mph SE2.7 kmh SE 3.1 mph5.0 kmh 29.76 in1007.8 mb 0.00 in0.0 mm 0.00 in0.0 mm 0.00 in0.0 mm
06:20 AM 52.7°F11.5°C 47.0°F8.3°C 81% 2.2 mph SSE3.5 kmh SSE 3.8 mph6.1 kmh 29.76 in1007.8 mb 0.00 in0.0 mm 0.00 in0.0 mm 0.00 in0.0 mm
06:30 AM 53.2°F11.8°C 47.9°F8.8°C 82% 2.2 mph S3.5 kmh S 3.1 mph5.0 kmh 29.76 in1007.8 mb 0.00 in0.0 mm 0.00 in0.0 mm 0.00 in0.0 mm
06:40 AM 53.4°F11.9°C 47.7°F8.7°C 81% 2.4 mph ESE3.9 kmh ESE 3.8 mph6.1 kmh 29.77 in1008.1 mb 0.00 in0.0 mm 0.00 in0.0 mm 0.00 in0.0 mm
06:50 AM 53.8°F12.1°C 48.1°F8.9°C 81% 2.5 mph S4.0 kmh S 3.8 mph6.1 kmh 29.76 in1007.8 mb 0.00 in0.0 mm 0.00 in0.0 mm 0.00 in0.0 mm
07:00 AM 54.1°F12.3°C 48.1°F8.9°C 80% 2.6 mph SSW4.2 kmh SSW 5.4 mph8.7 kmh 29.76 in1007.8 mb 0.00 in0.0 mm 0.00 in0.0 mm 0.00 in0.0 mm
07:10 AM 54.7°F12.6°C 47.3°F8.5°C 76% 2.7 mph S4.3 kmh S 3.8 mph6.1 kmh 29.77 in1008.1 mb 0.00 in0.0 mm 0.00 in0.0 mm 0.00 in0.0 mm
07:20 AM 55.0°F12.8°C 47.3°F8.5°C 75% 2.4 mph W3.9 kmh W 3.8 mph6.1 kmh 29.77 in1008.1 mb 0.00 in0.0 mm 0.00 in0.0 mm 0.00 in0.0 mm
07:30 AM 55.0°F12.8°C 46.9°F8.3°C 74% 2.5 mph SW4.0 kmh SW 4.5 mph7.2 kmh 29.77 in1008.1 mb 0.00 in0.0 mm 0.00 in0.0 mm 0.00 in0.0 mm
07:40 AM 55.0°F12.8°C 46.6°F8.1°C 73% 3.3 mph S5.3 kmh S 5.4 mph8.7 kmh 29.77 in1008.1 mb 0.00 in0.0 mm 0.00 in0.0 mm 0.00 in0.0 mm
07:50 AM 55.9°F13.3°C 47.4°F8.6°C 73% 3.0 mph SW4.8 kmh SW 4.5 mph7.2 kmh 29.76 in1007.8 mb 0.00 in0.0 mm 0.00 in0.0 mm 0.00 in0.0 mm
08:00 AM 56.1°F13.4°C 46.9°F8.3°C 71% 4.6 mph SW7.4 kmh SW 6.9 mph11.1 kmh 29.76 in1007.8 mb 0.00 in0.0 mm 0.00 in0.0 mm 0.00 in0.0 mm
08:10 AM 56.3°F13.5°C 47.0°F8.3°C 71% 4.0 mph SSW6.4 kmh SSW 6.0 mph9.7 kmh 29.76 in1007.8 mb 0.00 in0.0 mm 0.00 in0.0 mm 0.00 in0.0 mm
08:20 AM 57.2°F14.0°C 48.3°F9.1°C 72% 3.5 mph S5.6 kmh S 6.9 mph11.1 kmh 29.75 in1007.5 mb 0.00 in0.0 mm 0.00 in0.0 mm 0.00 in0.0 mm
08:30 AM 58.1°F14.5°C 48.4°F9.1°C 70% 5.2 mph S8.4 kmh S 8.3 mph13.4 kmh 29.75 in1007.5 mb 0.00 in0.0 mm 0.00 in0.0 mm 0.00 in0.0 mm
08:40 AM 58.5°F14.7°C 48.3°F9.1°C 69% 4.0 mph S6.4 kmh S 8.3 mph13.4 kmh 29.75 in1007.5 mb 0.00 in0.0 mm 0.00 in0.0 mm 0.00 in0.0 mm
08:50 AM 58.5°F14.7°C 47.2°F8.4°C 66% 6.1 mph S9.8 kmh S 8.3 mph13.4 kmh 29.75 in1007.5 mb 0.00 in0.0 mm 0.00 in0.0 mm 0.00 in0.0 mm
09:00 AM 60.1°F15.6°C 47.5°F8.6°C 63% 5.0 mph SW8.0 kmh SW 8.3 mph13.4 kmh 29.74 in1007.1 mb 0.00 in0.0 mm 0.00 in0.0 mm 0.00 in0.0 mm
09:10 AM 58.3°F14.6°C 45.8°F7.7°C 63% 6.3 mph SW10.1 kmh SW 9.8 mph15.8 kmh 29.74 in1007.1 mb 0.00 in0.0 mm 0.00 in0.0 mm 0.00 in0.0 mm
09:20 AM 57.4°F14.1°C 47.7°F8.7°C 70% 6.6 mph SSW10.6 kmh SSW 9.2 mph14.8 kmh 29.73 in1006.8 mb 0.00 in0.0 mm 0.00 in0.0 mm 0.00 in0.0 mm
09:30 AM 56.3°F13.5°C 47.0°F8.3°C 71% 7.3 mph S11.7 kmh S 12.1 mph19.5 kmh 29.73 in1006.8 mb 0.00 in0.0 mm 0.00 in0.0 mm 0.00 in0.0 mm
09:40 AM 55.6°F13.1°C 46.7°F8.2°C 72% 8.3 mph SSW13.4 kmh SSW 10.7 mph17.2 kmh 29.74 in1007.1 mb 0.00 in0.0 mm 0.00 in0.0 mm 0.00 in0.0 mm
09:50 AM 55.0°F12.8°C 46.6°F8.1°C 73% 10.2 mph SSW16.4 kmh SSW 17.4 mph28.0 kmh 29.73 in1006.8 mb 0.00 in0.0 mm 0.00 in0.0 mm 0.00 in0.0 mm
10:00 AM 55.0°F12.8°C 46.9°F8.3°C 74% 12.1 mph SW19.5 kmh SW 19.7 mph31.7 kmh 29.73 in1006.8 mb 0.00 in0.0 mm 0.00 in0.0 mm 0.00 in0.0 mm
10:10 AM 55.8°F13.2°C 47.2°F8.4°C 73% 8.6 mph SW13.8 kmh SW 13.0 mph20.9 kmh 29.73 in1006.8 mb 0.00 in0.0 mm 0.00 in0.0 mm 0.00 in0.0 mm
10:20 AM 56.1°F13.4°C 47.2°F8.4°C 72% 9.4 mph SW15.1 kmh SW 14.5 mph23.3 kmh 29.72 in1006.4 mb 0.00 in0.0 mm 0.00 in0.0 mm 0.00 in0.0 mm
10:30 AM 55.4°F13.0°C 47.6°F8.7°C 75% 10.9 mph SW17.5 kmh SW 16.8 mph27.0 kmh 29.72 in1006.4 mb 0.00 in0.0 mm 0.00 in0.0 mm 0.00 in0.0 mm
10:40 AM 55.4°F13.0°C 47.6°F8.7°C 75% 9.8 mph S15.8 kmh S 9.8 mph15.8 kmh 29.72 in1006.4 mb 0.00 in0.0 mm 0.00 in0.0 mm 0.00 in0.0 mm
10:50 AM 55.4°F13.0°C 47.6°F8.7°C 75% 9.8 mph S15.8 kmh S 9.8 mph15.8 kmh 29.72 in1006.4 mb 0.00 in0.0 mm 0.00 in0.0 mm 0.00 in0.0 mm
11:00 AM 55.4°F13.0°C 47.6°F8.7°C 75% 9.8 mph S15.8 kmh S 9.8 mph15.8 kmh 29.71 in1006.1 mb 0.00 in0.0 mm 0.00 in0.0 mm 0.00 in0.0 mm
11:10 AM 55.4°F13.0°C 47.6°F8.7°C 75% 9.8 mph S15.8 kmh S 9.8 mph15.8 kmh 29.70 in1005.8 mb 0.00 in0.0 mm 0.00 in0.0 mm 0.00 in0.0 mm
11:20 AM 55.4°F13.0°C 47.6°F8.7°C 75% 9.8 mph S15.8 kmh S 9.8 mph15.8 kmh 29.69 in1005.4 mb 0.00 in0.0 mm 0.00 in0.0 mm 0.00 in0.0 mm
11:30 AM 55.4°F13.0°C 47.6°F8.7°C 75% 9.8 mph S15.8 kmh S 9.8 mph15.8 kmh 29.69 in1005.4 mb 0.00 in0.0 mm 0.00 in0.0 mm 0.00 in0.0 mm
11:40 AM 55.4°F13.0°C 47.6°F8.7°C 75% 9.8 mph S15.8 kmh S 9.8 mph15.8 kmh 29.69 in1005.4 mb 0.00 in0.0 mm 0.00 in0.0 mm 0.00 in0.0 mm
11:50 AM 55.4°F13.0°C 47.6°F8.7°C 75% 9.8 mph S15.8 kmh S 9.8 mph15.8 kmh 29.68 in1005.1 mb 0.00 in0.0 mm 0.00 in0.0 mm 0.00 in0.0 mm
12:00 PM 55.4°F13.0°C 47.6°F8.7°C 75% 9.8 mph S15.8 kmh S 9.8 mph15.8 kmh 29.68 in1005.1 mb 0.00 in0.0 mm 0.00 in0.0 mm 0.00 in0.0 mm
12:10 PM 55.4°F13.0°C 47.6°F8.7°C 75% 9.8 mph S15.8 kmh S 9.8 mph15.8 kmh 29.67 in1004.7 mb 0.00 in0.0 mm 0.00 in0.0 mm 0.00 in0.0 mm
12:20 PM 55.4°F13.0°C 47.6°F8.7°C 75% 9.8 mph S15.8 kmh S 9.8 mph15.8 kmh 29.67 in1004.7 mb 0.00 in0.0 mm 0.00 in0.0 mm 0.00 in0.0 mm
12:30 PM 55.4°F13.0°C 47.6°F8.7°C 75% 9.8 mph S15.8 kmh S 9.8 mph15.8 kmh 29.66 in1004.4 mb 0.00 in0.0 mm 0.00 in0.0 mm 0.00 in0.0 mm
12:40 PM 55.4°F13.0°C 47.6°F8.7°C 75% 9.8 mph S15.8 kmh S 9.8 mph15.8 kmh 29.66 in1004.4 mb 0.00 in0.0 mm 0.00 in0.0 mm 0.00 in0.0 mm
12:50 PM 55.4°F13.0°C 47.6°F8.7°C 75% 9.8 mph S15.8 kmh S 9.8 mph15.8 kmh 29.65 in1004.1 mb 0.00 in0.0 mm 0.00 in0.0 mm 0.00 in0.0 mm
01:00 PM 55.4°F13.0°C 47.6°F8.7°C 75% 9.8 mph S15.8 kmh S 9.8 mph15.8 kmh 29.66 in1004.4 mb 0.00 in0.0 mm 0.00 in0.0 mm 0.00 in0.0 mm
01:10 PM 55.4°F13.0°C 47.6°F8.7°C 75% 9.8 mph S15.8 kmh S 9.8 mph15.8 kmh 29.66 in1004.4 mb 0.00 in0.0 mm 0.00 in0.0 mm 0.00 in0.0 mm
01:20 PM 55.4°F13.0°C 47.6°F8.7°C 75% 9.8 mph S15.8 kmh S 9.8 mph15.8 kmh 29.66 in1004.4 mb 0.00 in0.0 mm 0.00 in0.0 mm 0.00 in0.0 mm
01:30 PM 55.4°F13.0°C 47.6°F8.7°C 75% 9.8 mph S15.8 kmh S 9.8 mph15.8 kmh 29.66 in1004.4 mb 0.00 in0.0 mm 0.00 in0.0 mm 0.00 in0.0 mm
01:40 PM 55.4°F13.0°C 47.6°F8.7°C 75% 9.8 mph S15.8 kmh S 9.8 mph15.8 kmh 29.65 in1004.1 mb 0.00 in0.0 mm 0.00 in0.0 mm 0.00 in0.0 mm
01:50 PM 55.4°F13.0°C 47.6°F8.7°C 75% 9.8 mph S15.8 kmh S 9.8 mph15.8 kmh 29.64 in1003.7 mb 0.00 in0.0 mm 0.00 in0.0 mm 0.00 in0.0 mm
02:00 PM 55.4°F13.0°C 47.6°F8.7°C 75% 9.8 mph S15.8 kmh S 9.8 mph15.8 kmh 29.64 in1003.7 mb 0.00 in0.0 mm 0.00 in0.0 mm 0.00 in0.0 mm
02:10 PM 55.4°F13.0°C 47.6°F8.7°C 75% 9.8 mph S15.8 kmh S 9.8 mph15.8 kmh 29.64 in1003.7 mb 0.00 in0.0 mm 0.00 in0.0 mm 0.00 in0.0 mm
02:20 PM 55.4°F13.0°C 47.6°F8.7°C 75% 9.8 mph S15.8 kmh S 9.8 mph15.8 kmh 29.64 in1003.7 mb 0.00 in0.0 mm 0.00 in0.0 mm 0.00 in0.0 mm
02:30 PM 55.4°F13.0°C 47.6°F8.7°C 75% 9.8 mph S15.8 kmh S 9.8 mph15.8 kmh 29.63 in1003.4 mb 0.00 in0.0 mm 0.00 in0.0 mm 0.00 in0.0 mm
02:40 PM 55.4°F13.0°C 47.6°F8.7°C 75% 9.8 mph S15.8 kmh S 9.8 mph15.8 kmh 29.62 in1003.0 mb 0.00 in0.0 mm 0.00 in0.0 mm 0.00 in0.0 mm
02:50 PM 55.4°F13.0°C 47.6°F8.7°C 75% 9.8 mph S15.8 kmh S 9.8 mph15.8 kmh 29.63 in1003.4 mb 0.00 in0.0 mm 0.00 in0.0 mm 0.00 in0.0 mm
03:00 PM 55.4°F13.0°C 47.6°F8.7°C 75% 9.8 mph S15.8 kmh S 9.8 mph15.8 kmh 29.62 in1003.0 mb 0.00 in0.0 mm 0.00 in0.0 mm 0.00 in0.0 mm
03:10 PM 55.4°F13.0°C 47.6°F8.7°C 75% 9.8 mph S15.8 kmh S 9.8 mph15.8 kmh 29.61 in1002.7 mb 0.00 in0.0 mm 0.00 in0.0 mm 0.00 in0.0 mm
03:20 PM 55.4°F13.0°C 47.6°F8.7°C 75% 9.8 mph S15.8 kmh S 9.8 mph15.8 kmh 29.62 in1003.0 mb 0.00 in0.0 mm 0.00 in0.0 mm 0.00 in0.0 mm
03:30 PM 55.4°F13.0°C 47.6°F8.7°C 75% 9.8 mph S15.8 kmh S 9.8 mph15.8 kmh 29.61 in1002.7 mb 0.00 in0.0 mm 0.00 in0.0 mm 0.00 in0.0 mm
03:40 PM 55.4°F13.0°C 47.6°F8.7°C 75% 9.8 mph S15.8 kmh S 9.8 mph15.8 kmh 29.60 in1002.4 mb 0.00 in0.0 mm 0.00 in0.0 mm 0.00 in0.0 mm
03:50 PM 55.4°F13.0°C 47.6°F8.7°C 75% 9.8 mph S15.8 kmh S 9.8 mph15.8 kmh 29.60 in1002.4 mb 0.00 in0.0 mm 0.00 in0.0 mm 0.00 in0.0 mm
04:00 PM 55.4°F13.0°C 47.6°F8.7°C 75% 9.8 mph S15.8 kmh S 9.8 mph15.8 kmh 29.59 in1002.0 mb 0.00 in0.0 mm 0.00 in0.0 mm 0.00 in0.0 mm
04:10 PM 55.4°F13.0°C 47.6°F8.7°C 75% 9.8 mph S15.8 kmh S 9.8 mph15.8 kmh 29.60 in1002.4 mb 0.00 in0.0 mm 0.00 in0.0 mm 0.00 in0.0 mm
04:20 PM 55.4°F13.0°C 47.6°F8.7°C 75% 9.8 mph S15.8 kmh S 9.8 mph15.8 kmh 29.59 in1002.0 mb 0.00 in0.0 mm 0.00 in0.0 mm 0.00 in0.0 mm
04:30 PM 55.4°F13.0°C 47.6°F8.7°C 75% 9.8 mph S15.8 kmh S 9.8 mph15.8 kmh 29.60 in1002.4 mb 0.00 in0.0 mm 0.00 in0.0 mm 0.00 in0.0 mm
04:40 PM 55.4°F13.0°C 47.6°F8.7°C 75% 9.8 mph S15.8 kmh S 9.8 mph15.8 kmh 29.59 in1002.0 mb 0.00 in0.0 mm 0.00 in0.0 mm 0.00 in0.0 mm
04:50 PM 55.4°F13.0°C 47.6°F8.7°C 75% 9.8 mph S15.8 kmh S 9.8 mph15.8 kmh 29.59 in1002.0 mb 0.00 in0.0 mm 0.00 in0.0 mm 0.00 in0.0 mm
05:00 PM 55.4°F13.0°C 47.6°F8.7°C 75% 9.8 mph S15.8 kmh S 9.8 mph15.8 kmh 29.58 in1001.7 mb 0.00 in0.0 mm 0.00 in0.0 mm 0.00 in0.0 mm
05:10 PM 55.4°F13.0°C 47.6°F8.7°C 75% 9.8 mph S15.8 kmh S 9.8 mph15.8 kmh 29.58 in1001.7 mb 0.00 in0.0 mm 0.00 in0.0 mm 0.00 in0.0 mm
05:20 PM 55.4°F13.0°C 47.6°F8.7°C 75% 9.8 mph S15.8 kmh S 9.8 mph15.8 kmh 29.58 in1001.7 mb 0.00 in0.0 mm 0.00 in0.0 mm 0.00 in0.0 mm
05:30 PM 55.4°F13.0°C 49.7°F9.8°C 81% 6.3 mph SSW10.1 kmh SSW 6.9 mph11.1 kmh 29.57 in1001.4 mb 0.00 in0.0 mm 0.00 in0.0 mm 0.00 in0.0 mm
05:40 PM 55.0°F12.8°C 49.3°F9.6°C 81% 7.5 mph SW12.1 kmh SW 9.8 mph15.8 kmh 29.57 in1001.4 mb 0.00 in0.0 mm 0.00 in0.0 mm 0.00 in0.0 mm
05:50 PM 55.0°F12.8°C 49.7°F9.8°C 82% 9.8 mph SW15.8 kmh SW 15.9 mph25.6 kmh 29.57 in1001.4 mb 0.00 in0.0 mm 0.00 in0.0 mm 0.00 in0.0 mm
06:00 PM 55.2°F12.9°C 49.5°F9.7°C 81% 10.1 mph S16.3 kmh S 13.6 mph21.9 kmh 29.56 in1001.0 mb 0.00 in0.0 mm 0.00 in0.0 mm 0.00 in0.0 mm
06:10 PM 55.2°F12.9°C 49.5°F9.7°C 81% 8.3 mph SSW13.4 kmh SSW 13.6 mph21.9 kmh 29.55 in1000.7 mb 0.00 in0.0 mm 0.00 in0.0 mm 0.00 in0.0 mm
06:20 PM 55.4°F13.0°C 49.3°F9.6°C 80% 6.7 mph SSW10.8 kmh SSW 13.6 mph21.9 kmh 29.55 in1000.7 mb 0.00 in0.0 mm 0.00 in0.0 mm 0.00 in0.0 mm
06:30 PM 55.2°F12.9°C 49.2°F9.6°C 80% 6.9 mph SSW11.1 kmh SSW 13.6 mph21.9 kmh 29.55 in1000.7 mb 0.00 in0.0 mm 0.00 in0.0 mm 0.00 in0.0 mm
06:40 PM 54.7°F12.6°C 48.6°F9.2°C 80% 10.4 mph SSW16.7 kmh SSW 14.5 mph23.3 kmh 29.55 in1000.7 mb 0.00 in0.0 mm 0.00 in0.0 mm 0.00 in0.0 mm
06:50 PM 54.5°F12.5°C 48.8°F9.3°C 81% 7.7 mph SSW12.4 kmh SSW 11.4 mph18.3 kmh 29.55 in1000.7 mb 0.00 in0.0 mm 0.00 in0.0 mm 0.00 in0.0 mm
07:00 PM 54.9°F12.7°C 49.1°F9.5°C 81% 9.0 mph SSW14.5 kmh SSW 12.1 mph19.5 kmh 29.55 in1000.7 mb 0.00 in0.0 mm 0.00 in0.0 mm 0.00 in0.0 mm
07:10 PM 54.7°F12.6°C 49.0°F9.4°C 81% 9.0 mph SW14.5 kmh SW 12.1 mph19.5 kmh 29.55 in1000.7 mb 0.00 in0.0 mm 0.00 in0.0 mm 0.00 in0.0 mm
07:20 PM 54.5°F12.5°C 49.1°F9.5°C 82% 7.0 mph S11.3 kmh S 9.8 mph15.8 kmh 29.55 in1000.7 mb 0.00 in0.0 mm 0.00 in0.0 mm 0.00 in0.0 mm
07:30 PM 54.1°F12.3°C 50.1°F10.1°C 86% 6.5 mph WSW10.5 kmh WSW 9.2 mph14.8 kmh 29.55 in1000.7 mb 0.00 in0.0 mm 0.00 in0.0 mm 0.00 in0.0 mm
07:40 PM 54.1°F12.3°C 50.1°F10.1°C 86% 7.5 mph SSW12.1 kmh SSW 9.8 mph15.8 kmh 29.54 in1000.3 mb 0.00 in0.0 mm 0.00 in0.0 mm 0.00 in0.0 mm
07:50 PM 54.1°F12.3°C 50.1°F10.1°C 86% 6.9 mph S11.1 kmh S 6.9 mph11.1 kmh 29.55 in1000.7 mb 0.00 in0.0 mm 0.00 in0.0 mm 0.00 in0.0 mm
08:00 PM 54.1°F12.3°C 50.1°F10.1°C 86% 6.9 mph S11.1 kmh S 6.9 mph11.1 kmh 29.55 in1000.7 mb 0.00 in0.0 mm 0.00 in0.0 mm 0.00 in0.0 mm
08:10 PM 54.1°F12.3°C 50.1°F10.1°C 86% 6.9 mph S11.1 kmh S 6.9 mph11.1 kmh 29.56 in1001.0 mb 0.00 in0.0 mm 0.00 in0.0 mm 0.00 in0.0 mm
08:20 PM 54.1°F12.3°C 50.1°F10.1°C 86% 6.9 mph S11.1 kmh S 6.9 mph11.1 kmh 29.57 in1001.4 mb 0.00 in0.0 mm 0.00 in0.0 mm 0.00 in0.0 mm
08:30 PM 54.1°F12.3°C 50.1°F10.1°C 86% 6.9 mph S11.1 kmh S 6.9 mph11.1 kmh 29.58 in1001.7 mb 0.00 in0.0 mm 0.00 in0.0 mm 0.00 in0.0 mm
08:40 PM 54.1°F12.3°C 50.1°F10.1°C 86% 6.9 mph S11.1 kmh S 6.9 mph11.1 kmh 29.58 in1001.7 mb 0.00 in0.0 mm 0.00 in0.0 mm 0.00 in0.0 mm
08:50 PM 54.1°F12.3°C 50.1°F10.1°C 86% 6.9 mph S11.1 kmh S 6.9 mph11.1 kmh 29.59 in1002.0 mb 0.00 in0.0 mm 0.00 in0.0 mm 0.00 in0.0 mm
09:00 PM 54.1°F12.3°C 50.1°F10.1°C 86% 6.9 mph S11.1 kmh S 6.9 mph11.1 kmh 29.58 in1001.7 mb 0.00 in0.0 mm 0.00 in0.0 mm 0.00 in0.0 mm
09:10 PM 54.1°F12.3°C 50.1°F10.1°C 86% 6.9 mph S11.1 kmh S 6.9 mph11.1 kmh 29.59 in1002.0 mb 0.00 in0.0 mm 0.00 in0.0 mm 0.00 in0.0 mm
09:20 PM 54.1°F12.3°C 50.1°F10.1°C 86% 6.9 mph S11.1 kmh S 6.9 mph11.1 kmh 29.59 in1002.0 mb 0.00 in0.0 mm 0.00 in0.0 mm 0.00 in0.0 mm
09:30 PM 54.1°F12.3°C 50.1°F10.1°C 86% 6.9 mph S11.1 kmh S 6.9 mph11.1 kmh 29.59 in1002.0 mb 0.00 in0.0 mm 0.00 in0.0 mm 0.00 in0.0 mm
09:40 PM 54.1°F12.3°C 50.1°F10.1°C 86% 6.9 mph S11.1 kmh S 6.9 mph11.1 kmh 29.59 in1002.0 mb 0.00 in0.0 mm 0.00 in0.0 mm 0.00 in0.0 mm
09:50 PM 54.1°F12.3°C 50.1°F10.1°C 86% 6.9 mph S11.1 kmh S 6.9 mph11.1 kmh 29.60 in1002.4 mb 0.00 in0.0 mm 0.00 in0.0 mm 0.00 in0.0 mm
10:00 PM 54.1°F12.3°C 50.1°F10.1°C 86% 6.9 mph S11.1 kmh S 6.9 mph11.1 kmh 29.61 in1002.7 mb 0.00 in0.0 mm 0.00 in0.0 mm 0.00 in0.0 mm
10:10 PM 54.1°F12.3°C 50.1°F10.1°C 86% 6.9 mph S11.1 kmh S 6.9 mph11.1 kmh 29.60 in1002.4 mb 0.00 in0.0 mm 0.00 in0.0 mm 0.00 in0.0 mm